sensor_id;sensor_type;location;lat;lon;timestamp;temperature;humidity
68387;DHT22;55338;43.062;25.624;2023-02-01T00:01:54;3.10;99.90
68387;DHT22;55338;43.062;25.624;2023-02-01T00:04:20;3.10;99.90
68387;DHT22;55338;43.062;25.624;2023-02-01T00:06:46;3.10;99.90
68387;DHT22;55338;43.062;25.624;2023-02-01T00:09:12;3.10;99.90
68387;DHT22;55338;43.062;25.624;2023-02-01T00:11:39;3.10;99.90
68387;DHT22;55338;43.062;25.624;2023-02-01T00:14:05;3.20;99.90
68387;DHT22;55338;43.062;25.624;2023-02-01T00:16:31;3.20;99.90
68387;DHT22;55338;43.062;25.624;2023-02-01T00:19:03;3.10;99.90
68387;DHT22;55338;43.062;25.624;2023-02-01T00:21:30;3.10;99.90
68387;DHT22;55338;43.062;25.624;2023-02-01T00:23:56;3.00;99.90
68387;DHT22;55338;43.062;25.624;2023-02-01T00:26:35;3.00;99.90
68387;DHT22;55338;43.062;25.624;2023-02-01T00:29:04;2.90;99.90
68387;DHT22;55338;43.062;25.624;2023-02-01T00:31:29;2.90;99.90
68387;DHT22;55338;43.062;25.624;2023-02-01T00:33:55;2.90;99.90
68387;DHT22;55338;43.062;25.624;2023-02-01T00:36:21;2.80;99.90
68387;DHT22;55338;43.062;25.624;2023-02-01T00:38:46;2.80;99.90
68387;DHT22;55338;43.062;25.624;2023-02-01T00:41:14;2.70;99.90
68387;DHT22;55338;43.062;25.624;2023-02-01T00:43:41;2.70;99.90
68387;DHT22;55338;43.062;25.624;2023-02-01T00:46:07;2.70;99.90
68387;DHT22;55338;43.062;25.624;2023-02-01T00:48:33;2.70;99.90
68387;DHT22;55338;43.062;25.624;2023-02-01T00:51:03;2.70;99.90
68387;DHT22;55338;43.062;25.624;2023-02-01T00:53:30;2.70;99.90
68387;DHT22;55338;43.062;25.624;2023-02-01T00:55:56;2.70;99.90
68387;DHT22;55338;43.062;25.624;2023-02-01T00:58:22;2.60;99.90
68387;DHT22;55338;43.062;25.624;2023-02-01T01:03:26;2.60;99.90
68387;DHT22;55338;43.062;25.624;2023-02-01T01:05:57;2.70;99.90
68387;DHT22;55338;43.062;25.624;2023-02-01T01:08:23;2.70;99.90
68387;DHT22;55338;43.062;25.624;2023-02-01T01:10:48;2.80;99.90
68387;DHT22;55338;43.062;25.624;2023-02-01T01:13:15;2.80;99.90
68387;DHT22;55338;43.062;25.624;2023-02-01T01:15:41;2.90;99.90
68387;DHT22;55338;43.062;25.624;2023-02-01T01:18:07;2.90;99.90
68387;DHT22;55338;43.062;25.624;2023-02-01T01:20:35;3.00;99.90
68387;DHT22;55338;43.062;25.624;2023-02-01T01:23:01;3.00;99.90
68387;DHT22;55338;43.062;25.624;2023-02-01T01:25:27;3.00;99.90
68387;DHT22;55338;43.062;25.624;2023-02-01T01:27:53;3.00;99.90
68387;DHT22;55338;43.062;25.624;2023-02-01T01:30:18;3.10;99.90
68387;DHT22;55338;43.062;25.624;2023-02-01T01:32:44;3.20;99.90
68387;DHT22;55338;43.062;25.624;2023-02-01T01:35:10;3.20;99.90
68387;DHT22;55338;43.062;25.624;2023-02-01T01:37:36;3.40;99.90
68387;DHT22;55338;43.062;25.624;2023-02-01T01:40:04;3.30;99.90
68387;DHT22;55338;43.062;25.624;2023-02-01T01:42:30;3.30;99.90
68387;DHT22;55338;43.062;25.624;2023-02-01T01:47:37;3.40;99.90
68387;DHT22;55338;43.062;25.624;2023-02-01T01:50:08;3.40;99.90
68387;DHT22;55338;43.062;25.624;2023-02-01T01:52:37;3.40;99.90
68387;DHT22;55338;43.062;25.624;2023-02-01T01:55:04;3.40;99.90
68387;DHT22;55338;43.062;25.624;2023-02-01T01:57:34;3.40;99.90
68387;DHT22;55338;43.062;25.624;2023-02-01T02:00:16;3.40;99.90
68387;DHT22;55338;43.062;25.624;2023-02-01T02:02:45;3.40;99.90
68387;DHT22;55338;43.062;25.624;2023-02-01T02:05:12;3.40;99.90
68387;DHT22;55338;43.062;25.624;2023-02-01T02:07:41;3.30;99.90
68387;DHT22;55338;43.062;25.624;2023-02-01T02:10:10;3.30;99.90
68387;DHT22;55338;43.062;25.624;2023-02-01T02:12:44;3.30;99.90
68387;DHT22;55338;43.062;25.624;2023-02-01T02:15:13;3.30;99.90
68387;DHT22;55338;43.062;25.624;2023-02-01T02:28:56;3.20;99.90
68387;DHT22;55338;43.062;25.624;2023-02-01T02:31:58;3.10;99.90
68387;DHT22;55338;43.062;25.624;2023-02-01T02:51:27;3.10;99.90
68387;DHT22;55338;43.062;25.624;2023-02-01T02:54:15;3.00;99.90
68387;DHT22;55338;43.062;25.624;2023-02-01T02:57:04;3.00;99.90
68387;DHT22;55338;43.062;25.624;2023-02-01T02:59:51;3.00;99.90
68387;DHT22;55338;43.062;25.624;2023-02-01T03:02:37;3.10;99.90
68387;DHT22;55338;43.062;25.624;2023-02-01T03:05:22;3.00;99.90
68387;DHT22;55338;43.062;25.624;2023-02-01T03:10:38;3.10;99.90
68387;DHT22;55338;43.062;25.624;2023-02-01T03:16:00;3.20;99.90
68387;DHT22;55338;43.062;25.624;2023-02-01T03:21:17;3.30;99.90
68387;DHT22;55338;43.062;25.624;2023-02-01T03:23:45;3.30;99.90
68387;DHT22;55338;43.062;25.624;2023-02-01T03:26:15;3.40;99.90
68387;DHT22;55338;43.062;25.624;2023-02-01T03:28:48;3.40;99.90
68387;DHT22;55338;43.062;25.624;2023-02-01T03:31:16;3.40;99.90
68387;DHT22;55338;43.062;25.624;2023-02-01T03:33:42;3.40;99.90
68387;DHT22;55338;43.062;25.624;2023-02-01T03:38:53;3.30;99.90
68387;DHT22;55338;43.062;25.624;2023-02-01T03:42:00;3.30;99.90
68387;DHT22;55338;43.062;25.624;2023-02-01T03:44:58;3.30;99.90
68387;DHT22;55338;43.062;25.624;2023-02-01T03:47:29;3.30;99.90
68387;DHT22;55338;43.062;25.624;2023-02-01T03:50:05;3.20;99.90
68387;DHT22;55338;43.062;25.624;2023-02-01T03:53:17;3.30;99.90
68387;DHT22;55338;43.062;25.624;2023-02-01T03:55:44;3.30;99.90
68387;DHT22;55338;43.062;25.624;2023-02-01T03:58:20;3.30;99.90
68387;DHT22;55338;43.062;25.624;2023-02-01T04:00:53;3.30;99.90
68387;DHT22;55338;43.062;25.624;2023-02-01T04:03:20;3.30;99.90
68387;DHT22;55338;43.062;25.624;2023-02-01T04:05:50;3.20;99.90
68387;DHT22;55338;43.062;25.624;2023-02-01T04:08:18;3.20;99.90
68387;DHT22;55338;43.062;25.624;2023-02-01T04:10:43;3.10;99.90
68387;DHT22;55338;43.062;25.624;2023-02-01T04:13:09;3.20;99.90
68387;DHT22;55338;43.062;25.624;2023-02-01T04:15:35;3.20;99.90
68387;DHT22;55338;43.062;25.624;2023-02-01T04:18:01;3.20;99.90
68387;DHT22;55338;43.062;25.624;2023-02-01T04:20:27;3.20;99.90
68387;DHT22;55338;43.062;25.624;2023-02-01T04:22:53;3.10;99.90
68387;DHT22;55338;43.062;25.624;2023-02-01T04:25:19;3.10;99.90
68387;DHT22;55338;43.062;25.624;2023-02-01T04:27:44;3.10;99.90
68387;DHT22;55338;43.062;25.624;2023-02-01T04:30:12;3.10;99.90
68387;DHT22;55338;43.062;25.624;2023-02-01T04:32:38;3.10;99.90
68387;DHT22;55338;43.062;25.624;2023-02-01T04:35:05;3.10;99.90
68387;DHT22;55338;43.062;25.624;2023-02-01T04:37:31;3.00;99.90
68387;DHT22;55338;43.062;25.624;2023-02-01T04:39:57;3.00;99.90
68387;DHT22;55338;43.062;25.624;2023-02-01T04:42:22;3.00;99.90
68387;DHT22;55338;43.062;25.624;2023-02-01T04:44:48;2.90;99.90
68387;DHT22;55338;43.062;25.624;2023-02-01T04:47:14;2.80;99.90
68387;DHT22;55338;43.062;25.624;2023-02-01T04:49:41;2.80;99.90
68387;DHT22;55338;43.062;25.624;2023-02-01T04:52:07;2.70;99.90
68387;DHT22;55338;43.062;25.624;2023-02-01T04:54:33;2.70;99.90
68387;DHT22;55338;43.062;25.624;2023-02-01T04:56:59;2.60;99.90
68387;DHT22;55338;43.062;25.624;2023-02-01T04:59:26;2.60;99.90
68387;DHT22;55338;43.062;25.624;2023-02-01T05:01:52;2.50;99.90
68387;DHT22;55338;43.062;25.624;2023-02-01T05:04:18;2.40;99.90
68387;DHT22;55338;43.062;25.624;2023-02-01T05:06:44;2.30;99.90
68387;DHT22;55338;43.062;25.624;2023-02-01T05:09:10;2.30;99.90
68387;DHT22;55338;43.062;25.624;2023-02-01T05:11:36;2.10;99.90
68387;DHT22;55338;43.062;25.624;2023-02-01T05:14:20;1.90;99.90
68387;DHT22;55338;43.062;25.624;2023-02-01T05:16:46;1.80;99.90
68387;DHT22;55338;43.062;25.624;2023-02-01T05:19:12;1.80;99.90
68387;DHT22;55338;43.062;25.624;2023-02-01T05:21:38;1.80;99.90
68387;DHT22;55338;43.062;25.624;2023-02-01T05:24:04;1.70;99.90
68387;DHT22;55338;43.062;25.624;2023-02-01T05:26:36;1.70;99.90
68387;DHT22;55338;43.062;25.624;2023-02-01T05:29:03;1.70;99.90
68387;DHT22;55338;43.062;25.624;2023-02-01T05:31:29;1.60;99.90
68387;DHT22;55338;43.062;25.624;2023-02-01T05:33:55;1.60;99.90
68387;DHT22;55338;43.062;25.624;2023-02-01T05:36:20;1.60;99.90
68387;DHT22;55338;43.062;25.624;2023-02-01T05:38:46;1.50;99.90
68387;DHT22;55338;43.062;25.624;2023-02-01T05:41:12;1.50;99.90
68387;DHT22;55338;43.062;25.624;2023-02-01T05:43:38;1.40;99.90
68387;DHT22;55338;43.062;25.624;2023-02-01T05:46:04;1.40;99.90
68387;DHT22;55338;43.062;25.624;2023-02-01T05:48:29;1.40;99.90
68387;DHT22;55338;43.062;25.624;2023-02-01T05:50:55;1.40;99.90
68387;DHT22;55338;43.062;25.624;2023-02-01T05:53:21;1.30;99.90
68387;DHT22;55338;43.062;25.624;2023-02-01T05:55:47;1.20;99.90
68387;DHT22;55338;43.062;25.624;2023-02-01T05:58:13;1.20;99.90
68387;DHT22;55338;43.062;25.624;2023-02-01T06:00:39;1.20;99.90
68387;DHT22;55338;43.062;25.624;2023-02-01T06:03:05;1.10;99.90
68387;DHT22;55338;43.062;25.624;2023-02-01T06:05:31;1.10;99.90
68387;DHT22;55338;43.062;25.624;2023-02-01T06:07:57;1.10;99.90
68387;DHT22;55338;43.062;25.624;2023-02-01T06:10:23;1.20;99.90
68387;DHT22;55338;43.062;25.624;2023-02-01T06:12:49;1.10;99.90
68387;DHT22;55338;43.062;25.624;2023-02-01T06:15:16;1.10;99.90
68387;DHT22;55338;43.062;25.624;2023-02-01T06:17:43;1.10;99.90
68387;DHT22;55338;43.062;25.624;2023-02-01T06:20:11;1.10;99.90
68387;DHT22;55338;43.062;25.624;2023-02-01T06:22:37;1.10;99.90
68387;DHT22;55338;43.062;25.624;2023-02-01T06:25:04;1.10;99.90
68387;DHT22;55338;43.062;25.624;2023-02-01T06:27:31;1.10;99.90
68387;DHT22;55338;43.062;25.624;2023-02-01T06:29:57;1.10;99.90
68387;DHT22;55338;43.062;25.624;2023-02-01T06:32:23;1.20;99.90
68387;DHT22;55338;43.062;25.624;2023-02-01T06:34:53;1.30;99.90
68387;DHT22;55338;43.062;25.624;2023-02-01T06:37:22;1.40;99.90
68387;DHT22;55338;43.062;25.624;2023-02-01T06:39:49;1.40;99.90
68387;DHT22;55338;43.062;25.624;2023-02-01T06:42:15;1.40;99.90
68387;DHT22;55338;43.062;25.624;2023-02-01T06:44:42;1.40;99.90
68387;DHT22;55338;43.062;25.624;2023-02-01T06:47:07;1.40;99.90
68387;DHT22;55338;43.062;25.624;2023-02-01T06:49:33;1.40;99.90
68387;DHT22;55338;43.062;25.624;2023-02-01T06:51:59;1.50;99.90
68387;DHT22;55338;43.062;25.624;2023-02-01T06:54:28;1.50;99.90
68387;DHT22;55338;43.062;25.624;2023-02-01T06:56:55;1.60;99.90
68387;DHT22;55338;43.062;25.624;2023-02-01T06:59:21;1.80;99.90
68387;DHT22;55338;43.062;25.624;2023-02-01T07:01:46;1.80;99.90
68387;DHT22;55338;43.062;25.624;2023-02-01T07:04:12;1.90;99.90
68387;DHT22;55338;43.062;25.624;2023-02-01T07:06:39;1.90;99.90
68387;DHT22;55338;43.062;25.624;2023-02-01T07:09:06;1.90;99.90
68387;DHT22;55338;43.062;25.624;2023-02-01T07:11:32;2.00;99.90
68387;DHT22;55338;43.062;25.624;2023-02-01T07:13:58;1.60;99.90
68387;DHT22;55338;43.062;25.624;2023-02-01T07:16:27;2.10;99.90
68387;DHT22;55338;43.062;25.624;2023-02-01T07:18:55;2.20;99.90
68387;DHT22;55338;43.062;25.624;2023-02-01T07:21:21;2.40;99.90
68387;DHT22;55338;43.062;25.624;2023-02-01T07:23:47;2.50;99.90
68387;DHT22;55338;43.062;25.624;2023-02-01T07:26:14;2.70;99.90
68387;DHT22;55338;43.062;25.624;2023-02-01T07:28:40;2.90;99.90
68387;DHT22;55338;43.062;25.624;2023-02-01T07:31:18;3.10;99.90
68387;DHT22;55338;43.062;25.624;2023-02-01T07:33:44;3.30;99.90
68387;DHT22;55338;43.062;25.624;2023-02-01T07:36:12;3.50;99.90
68387;DHT22;55338;43.062;25.624;2023-02-01T07:38:38;3.60;99.90
68387;DHT22;55338;43.062;25.624;2023-02-01T07:41:05;3.80;99.90
68387;DHT22;55338;43.062;25.624;2023-02-01T07:43:31;4.00;99.90
68387;DHT22;55338;43.062;25.624;2023-02-01T07:45:58;4.20;99.90
68387;DHT22;55338;43.062;25.624;2023-02-01T07:48:25;4.40;99.90
68387;DHT22;55338;43.062;25.624;2023-02-01T07:51:06;4.50;99.90
68387;DHT22;55338;43.062;25.624;2023-02-01T07:53:34;4.60;99.90
68387;DHT22;55338;43.062;25.624;2023-02-01T07:56:00;4.70;99.90
68387;DHT22;55338;43.062;25.624;2023-02-01T07:58:27;4.90;99.90
68387;DHT22;55338;43.062;25.624;2023-02-01T08:00:55;5.00;99.90
68387;DHT22;55338;43.062;25.624;2023-02-01T08:03:40;5.20;99.90
68387;DHT22;55338;43.062;25.624;2023-02-01T08:06:07;5.50;99.90
68387;DHT22;55338;43.062;25.624;2023-02-01T08:08:38;5.70;98.00
68387;DHT22;55338;43.062;25.624;2023-02-01T08:11:05;5.80;98.10
68387;DHT22;55338;43.062;25.624;2023-02-01T08:13:33;6.30;97.00
68387;DHT22;55338;43.062;25.624;2023-02-01T08:16:01;7.00;92.40
68387;DHT22;55338;43.062;25.624;2023-02-01T08:18:27;7.50;89.40
68387;DHT22;55338;43.062;25.624;2023-02-01T08:20:53;7.90;85.30
68387;DHT22;55338;43.062;25.624;2023-02-01T08:23:19;8.50;83.80
68387;DHT22;55338;43.062;25.624;2023-02-01T08:25:45;8.80;82.30
68387;DHT22;55338;43.062;25.624;2023-02-01T08:28:12;8.90;80.00
68387;DHT22;55338;43.062;25.624;2023-02-01T08:30:38;8.70;78.70
68387;DHT22;55338;43.062;25.624;2023-02-01T08:33:05;8.40;81.60
68387;DHT22;55338;43.062;25.624;2023-02-01T08:35:34;8.90;79.70
68387;DHT22;55338;43.062;25.624;2023-02-01T08:38:00;9.10;77.50
68387;DHT22;55338;43.062;25.624;2023-02-01T08:40:26;9.30;76.70
68387;DHT22;55338;43.062;25.624;2023-02-01T08:42:52;8.90;77.40
68387;DHT22;55338;43.062;25.624;2023-02-01T08:45:23;8.50;78.10
68387;DHT22;55338;43.062;25.624;2023-02-01T08:47:50;8.40;79.90
68387;DHT22;55338;43.062;25.624;2023-02-01T08:50:17;8.40;79.00
68387;DHT22;55338;43.062;25.624;2023-02-01T08:52:43;8.10;80.30
68387;DHT22;55338;43.062;25.624;2023-02-01T08:55:09;8.30;80.30
68387;DHT22;55338;43.062;25.624;2023-02-01T08:57:35;8.10;80.70
68387;DHT22;55338;43.062;25.624;2023-02-01T09:00:02;7.80;81.70
68387;DHT22;55338;43.062;25.624;2023-02-01T09:02:30;7.50;82.30
68387;DHT22;55338;43.062;25.624;2023-02-01T09:04:56;7.20;83.70
68387;DHT22;55338;43.062;25.624;2023-02-01T09:07:22;7.20;85.50
68387;DHT22;55338;43.062;25.624;2023-02-01T09:09:48;7.20;84.60
68387;DHT22;55338;43.062;25.624;2023-02-01T09:12:14;7.20;85.10
68387;DHT22;55338;43.062;25.624;2023-02-01T09:14:40;7.20;85.70
68387;DHT22;55338;43.062;25.624;2023-02-01T09:17:09;7.40;85.50
68387;DHT22;55338;43.062;25.624;2023-02-01T09:19:35;7.40;85.80
68387;DHT22;55338;43.062;25.624;2023-02-01T09:22:01;7.30;85.70
68387;DHT22;55338;43.062;25.624;2023-02-01T09:24:26;7.50;85.80
68387;DHT22;55338;43.062;25.624;2023-02-01T09:26:53;7.40;85.40
68387;DHT22;55338;43.062;25.624;2023-02-01T09:29:18;7.30;86.00
68387;DHT22;55338;43.062;25.624;2023-02-01T09:31:44;7.30;85.80
68387;DHT22;55338;43.062;25.624;2023-02-01T09:34:10;7.30;85.40
68387;DHT22;55338;43.062;25.624;2023-02-01T09:36:36;7.50;85.20
68387;DHT22;55338;43.062;25.624;2023-02-01T09:39:02;7.50;83.70
68387;DHT22;55338;43.062;25.624;2023-02-01T09:41:57;7.60;83.50
68387;DHT22;55338;43.062;25.624;2023-02-01T09:47:21;7.90;83.70
68387;DHT22;55338;43.062;25.624;2023-02-01T09:50:14;7.90;80.90
68387;DHT22;55338;43.062;25.624;2023-02-01T09:52:59;8.00;80.30
68387;DHT22;55338;43.062;25.624;2023-02-01T09:55:47;8.40;80.30
68387;DHT22;55338;43.062;25.624;2023-02-01T09:58:25;9.50;76.30
68387;DHT22;55338;43.062;25.624;2023-02-01T10:00:58;10.60;71.00
68387;DHT22;55338;43.062;25.624;2023-02-01T10:03:32;10.80;70.80
68387;DHT22;55338;43.062;25.624;2023-02-01T10:11:36;10.40;70.30
68387;DHT22;55338;43.062;25.624;2023-02-01T10:22:41;11.60;64.20
68387;DHT22;55338;43.062;25.624;2023-02-01T10:25:29;12.60;61.40
68387;DHT22;55338;43.062;25.624;2023-02-01T10:28:00;13.60;58.20
68387;DHT22;55338;43.062;25.624;2023-02-01T10:30:37;13.20;59.00
68387;DHT22;55338;43.062;25.624;2023-02-01T10:33:18;12.70;59.00
68387;DHT22;55338;43.062;25.624;2023-02-01T10:35:45;12.90;59.80
68387;DHT22;55338;43.062;25.624;2023-02-01T10:38:25;12.40;59.60
68387;DHT22;55338;43.062;25.624;2023-02-01T10:40:55;12.30;60.40
68387;DHT22;55338;43.062;25.624;2023-02-01T10:43:22;11.70;60.30
68387;DHT22;55338;43.062;25.624;2023-02-01T10:45:48;12.70;60.00
68387;DHT22;55338;43.062;25.624;2023-02-01T10:48:14;13.80;57.20
68387;DHT22;55338;43.062;25.624;2023-02-01T10:50:48;14.60;54.20
68387;DHT22;55338;43.062;25.624;2023-02-01T10:53:21;15.50;51.60
68387;DHT22;55338;43.062;25.624;2023-02-01T10:55:51;16.00;50.00
68387;DHT22;55338;43.062;25.624;2023-02-01T11:01:00;16.50;47.30
68387;DHT22;55338;43.062;25.624;2023-02-01T11:06:00;14.60;51.00
68387;DHT22;55338;43.062;25.624;2023-02-01T11:08:27;13.90;53.10
68387;DHT22;55338;43.062;25.624;2023-02-01T11:11:03;13.50;54.30
68387;DHT22;55338;43.062;25.624;2023-02-01T11:13:37;12.90;55.80
68387;DHT22;55338;43.062;25.624;2023-02-01T11:16:04;12.40;55.70
68387;DHT22;55338;43.062;25.624;2023-02-01T11:18:38;12.40;57.70
68387;DHT22;55338;43.062;25.624;2023-02-01T11:21:08;12.40;55.90
68387;DHT22;55338;43.062;25.624;2023-02-01T11:23:44;12.40;57.20
68387;DHT22;55338;43.062;25.624;2023-02-01T11:26:23;12.40;57.00
68387;DHT22;55338;43.062;25.624;2023-02-01T11:29:03;12.10;58.20
68387;DHT22;55338;43.062;25.624;2023-02-01T11:31:30;12.10;57.60
68387;DHT22;55338;43.062;25.624;2023-02-01T11:34:16;11.60;58.10
68387;DHT22;55338;43.062;25.624;2023-02-01T11:36:45;12.40;59.20
68387;DHT22;55338;43.062;25.624;2023-02-01T11:46:55;15.40;49.30
68387;DHT22;55338;43.062;25.624;2023-02-01T11:49:59;15.30;49.10
68387;DHT22;55338;43.062;25.624;2023-02-01T11:58:06;13.80;52.60
68387;DHT22;55338;43.062;25.624;2023-02-01T12:00:54;12.70;54.00
68387;DHT22;55338;43.062;25.624;2023-02-01T12:04:18;12.30;54.30
68387;DHT22;55338;43.062;25.624;2023-02-01T12:06:56;12.00;55.80
68387;DHT22;55338;43.062;25.624;2023-02-01T12:24:07;13.00;54.50
68387;DHT22;55338;43.062;25.624;2023-02-01T12:26:38;14.90;49.80
68387;DHT22;55338;43.062;25.624;2023-02-01T12:37:34;14.70;48.20
68387;DHT22;55338;43.062;25.624;2023-02-01T12:42:38;13.40;51.80
68387;DHT22;55338;43.062;25.624;2023-02-01T12:45:19;12.90;53.50
68387;DHT22;55338;43.062;25.624;2023-02-01T12:50:46;12.20;54.80
68387;DHT22;55338;43.062;25.624;2023-02-01T12:56:13;11.50;56.50
68387;DHT22;55338;43.062;25.624;2023-02-01T12:58:46;11.30;57.70
68387;DHT22;55338;43.062;25.624;2023-02-01T13:01:35;11.30;57.40
68387;DHT22;55338;43.062;25.624;2023-02-01T13:06:52;11.70;56.70
68387;DHT22;55338;43.062;25.624;2023-02-01T13:09:22;12.50;55.30
68387;DHT22;55338;43.062;25.624;2023-02-01T13:11:53;13.20;53.30
68387;DHT22;55338;43.062;25.624;2023-02-01T13:14:36;14.00;52.10
68387;DHT22;55338;43.062;25.624;2023-02-01T13:17:10;14.40;50.90
68387;DHT22;55338;43.062;25.624;2023-02-01T13:25:11;13.80;52.30
68387;DHT22;55338;43.062;25.624;2023-02-01T13:27:38;13.70;52.00
68387;DHT22;55338;43.062;25.624;2023-02-01T13:30:23;13.60;52.00
68387;DHT22;55338;43.062;25.624;2023-02-01T13:41:29;14.00;51.20
68387;DHT22;55338;43.062;25.624;2023-02-01T13:44:01;14.10;50.00
68387;DHT22;55338;43.062;25.624;2023-02-01T13:46:28;14.70;50.20
68387;DHT22;55338;43.062;25.624;2023-02-01T13:48:58;15.10;48.30
68387;DHT22;55338;43.062;25.624;2023-02-01T13:51:44;15.50;47.10
68387;DHT22;55338;43.062;25.624;2023-02-01T13:54:29;16.30;45.70
68387;DHT22;55338;43.062;25.624;2023-02-01T13:56:57;17.00;43.80
68387;DHT22;55338;43.062;25.624;2023-02-01T14:05:03;17.60;42.20
68387;DHT22;55338;43.062;25.624;2023-02-01T14:07:30;17.50;43.40
68387;DHT22;55338;43.062;25.624;2023-02-01T14:09:56;16.90;42.90
68387;DHT22;55338;43.062;25.624;2023-02-01T14:12:46;16.50;44.10
68387;DHT22;55338;43.062;25.624;2023-02-01T14:17:44;14.30;50.00
68387;DHT22;55338;43.062;25.624;2023-02-01T14:20:42;13.30;51.90
68387;DHT22;55338;43.062;25.624;2023-02-01T14:23:21;12.20;53.80
68387;DHT22;55338;43.062;25.624;2023-02-01T14:26:03;11.50;55.70
68387;DHT22;55338;43.062;25.624;2023-02-01T14:28:30;10.80;57.20
68387;DHT22;55338;43.062;25.624;2023-02-01T14:30:57;10.50;58.70
68387;DHT22;55338;43.062;25.624;2023-02-01T14:33:25;10.10;59.50
68387;DHT22;55338;43.062;25.624;2023-02-01T14:36:07;10.00;59.50
68387;DHT22;55338;43.062;25.624;2023-02-01T14:38:34;9.80;60.20
68387;DHT22;55338;43.062;25.624;2023-02-01T14:41:30;9.70;59.80
68387;DHT22;55338;43.062;25.624;2023-02-01T14:49:32;9.40;60.10
68387;DHT22;55338;43.062;25.624;2023-02-01T14:51:59;9.30;60.80
68387;DHT22;55338;43.062;25.624;2023-02-01T14:54:25;9.20;61.50
68387;DHT22;55338;43.062;25.624;2023-02-01T14:56:52;9.10;61.60
68387;DHT22;55338;43.062;25.624;2023-02-01T14:59:22;9.00;62.40
68387;DHT22;55338;43.062;25.624;2023-02-01T15:01:56;9.00;62.80
68387;DHT22;55338;43.062;25.624;2023-02-01T15:04:25;8.90;63.20
68387;DHT22;55338;43.062;25.624;2023-02-01T15:06:57;8.80;63.80
68387;DHT22;55338;43.062;25.624;2023-02-01T15:14:28;8.40;66.00
68387;DHT22;55338;43.062;25.624;2023-02-01T15:16:54;8.30;65.60
68387;DHT22;55338;43.062;25.624;2023-02-01T15:19:25;8.20;66.40
68387;DHT22;55338;43.062;25.624;2023-02-01T15:21:54;8.10;67.00
68387;DHT22;55338;43.062;25.624;2023-02-01T15:24:29;8.00;67.20
68387;DHT22;55338;43.062;25.624;2023-02-01T15:27:04;8.00;66.80
68387;DHT22;55338;43.062;25.624;2023-02-01T15:29:35;7.90;66.70
68387;DHT22;55338;43.062;25.624;2023-02-01T15:32:02;7.90;66.10
68387;DHT22;55338;43.062;25.624;2023-02-01T15:34:48;7.70;67.40
68387;DHT22;55338;43.062;25.624;2023-02-01T15:37:16;7.60;67.70
68387;DHT22;55338;43.062;25.624;2023-02-01T15:42:30;7.50;68.40
68387;DHT22;55338;43.062;25.624;2023-02-01T15:44:56;7.40;68.40
68387;DHT22;55338;43.062;25.624;2023-02-01T15:47:27;7.30;69.00
68387;DHT22;55338;43.062;25.624;2023-02-01T15:49:59;7.20;69.20
68387;DHT22;55338;43.062;25.624;2023-02-01T15:52:36;7.10;69.50
68387;DHT22;55338;43.062;25.624;2023-02-01T15:55:17;7.10;70.00
68387;DHT22;55338;43.062;25.624;2023-02-01T15:57:44;7.10;69.90
68387;DHT22;55338;43.062;25.624;2023-02-01T16:00:25;7.00;70.10
68387;DHT22;55338;43.062;25.624;2023-02-01T16:03:01;6.90;70.30
68387;DHT22;55338;43.062;25.624;2023-02-01T16:08:13;6.70;70.90
68387;DHT22;55338;43.062;25.624;2023-02-01T16:10:45;6.70;71.50
68387;DHT22;55338;43.062;25.624;2023-02-01T16:13:12;6.60;71.80
68387;DHT22;55338;43.062;25.624;2023-02-01T16:15:38;6.50;72.20
68387;DHT22;55338;43.062;25.624;2023-02-01T16:18:05;6.40;72.50
68387;DHT22;55338;43.062;25.624;2023-02-01T16:20:33;6.40;72.70
68387;DHT22;55338;43.062;25.624;2023-02-01T16:23:01;6.70;73.30
68387;DHT22;55338;43.062;25.624;2023-02-01T16:25:27;6.30;72.90
68387;DHT22;55338;43.062;25.624;2023-02-01T16:27:53;6.20;73.20
68387;DHT22;55338;43.062;25.624;2023-02-01T16:30:19;6.10;73.70
68387;DHT22;55338;43.062;25.624;2023-02-01T16:32:55;6.00;74.70
68387;DHT22;55338;43.062;25.624;2023-02-01T16:35:32;6.00;77.70
68387;DHT22;55338;43.062;25.624;2023-02-01T16:38:05;5.90;78.70
68387;DHT22;55338;43.062;25.624;2023-02-01T16:40:41;5.70;79.70
68387;DHT22;55338;43.062;25.624;2023-02-01T16:43:18;5.60;81.40
68387;DHT22;55338;43.062;25.624;2023-02-01T16:45:46;5.40;82.80
68387;DHT22;55338;43.062;25.624;2023-02-01T16:48:33;5.20;85.00
68387;DHT22;55338;43.062;25.624;2023-02-01T16:51:07;5.00;87.50
68387;DHT22;55338;43.062;25.624;2023-02-01T16:53:34;4.90;90.00
68387;DHT22;55338;43.062;25.624;2023-02-01T16:56:00;4.70;92.30
68387;DHT22;55338;43.062;25.624;2023-02-01T16:58:26;4.50;94.50
68387;DHT22;55338;43.062;25.624;2023-02-01T17:00:53;4.50;96.60
68387;DHT22;55338;43.062;25.624;2023-02-01T17:03:20;4.30;96.30
68387;DHT22;55338;43.062;25.624;2023-02-01T17:05:55;4.20;97.50
68387;DHT22;55338;43.062;25.624;2023-02-01T17:08:34;4.20;98.40
68387;DHT22;55338;43.062;25.624;2023-02-01T17:11:01;4.10;98.00
68387;DHT22;55338;43.062;25.624;2023-02-01T17:13:27;4.00;99.10
68387;DHT22;55338;43.062;25.624;2023-02-01T17:15:59;4.00;98.90
68387;DHT22;55338;43.062;25.624;2023-02-01T17:18:31;3.90;99.90
68387;DHT22;55338;43.062;25.624;2023-02-01T17:20:59;3.90;99.90
68387;DHT22;55338;43.062;25.624;2023-02-01T17:23:25;3.80;99.90
68387;DHT22;55338;43.062;25.624;2023-02-01T17:25:51;3.80;99.90
68387;DHT22;55338;43.062;25.624;2023-02-01T17:28:16;3.80;99.90
68387;DHT22;55338;43.062;25.624;2023-02-01T17:30:42;3.80;99.90
68387;DHT22;55338;43.062;25.624;2023-02-01T17:33:25;3.70;99.90
68387;DHT22;55338;43.062;25.624;2023-02-01T17:35:53;3.60;99.90
68387;DHT22;55338;43.062;25.624;2023-02-01T17:38:19;3.60;99.90
68387;DHT22;55338;43.062;25.624;2023-02-01T17:40:45;3.50;99.90
68387;DHT22;55338;43.062;25.624;2023-02-01T17:43:16;3.40;99.90
68387;DHT22;55338;43.062;25.624;2023-02-01T17:45:51;3.30;99.90
68387;DHT22;55338;43.062;25.624;2023-02-01T17:48:21;3.30;99.90
68387;DHT22;55338;43.062;25.624;2023-02-01T17:50:49;3.20;99.90
68387;DHT22;55338;43.062;25.624;2023-02-01T17:53:19;3.20;99.90
68387;DHT22;55338;43.062;25.624;2023-02-01T17:55:49;3.10;99.90
68387;DHT22;55338;43.062;25.624;2023-02-01T17:58:15;3.10;99.90
68387;DHT22;55338;43.062;25.624;2023-02-01T18:00:42;3.10;99.90
68387;DHT22;55338;43.062;25.624;2023-02-01T18:03:29;3.10;99.90
68387;DHT22;55338;43.062;25.624;2023-02-01T18:05:56;3.00;99.90
68387;DHT22;55338;43.062;25.624;2023-02-01T18:08:25;2.90;99.90
68387;DHT22;55338;43.062;25.624;2023-02-01T18:10:56;2.80;99.90
68387;DHT22;55338;43.062;25.624;2023-02-01T18:13:28;2.70;99.90
68387;DHT22;55338;43.062;25.624;2023-02-01T18:15:54;2.70;99.90
68387;DHT22;55338;43.062;25.624;2023-02-01T18:18:20;2.70;99.90
68387;DHT22;55338;43.062;25.624;2023-02-01T18:20:47;2.60;99.90